YPKG/KGI METAR and TAF weather

Enter ICAO airport designator
Station Type Date Time Source
YPKG METAR 2019/02/21 16:30 UTC NOAA

YPKG 211630Z AUTO 24011KT 9999 // NCD 28/03 Q1011 RF00.0/000.0


Station Type Date Time Source
YPKG Decoded METAR 2019/02/21 16:30 UTC NOAA

Kalgoorlie Boulder Amo, Australia (YPKG) 30-47S 121-27E 370M
Feb 21, 2019 - 11:30 AM EST / 2019.02.21 1630 UTC
Wind: from the WSW (240 degrees) at 13 MPH (11 KT):0
Visibility: greater than 7 mile(s):0
Temperature: 82 F (28 C)
Dew Point: 37 F (3 C)
Relative Humidity: 20%
Pressure (altimeter): 29.85 in. Hg (1011 hPa)
ob: YPKG 211630Z AUTO 24011KT 9999 // NCD 28/03 Q1011 RF00.0/000.0
cycle: 16

Station Type Date Time Source
YPKG TAF 2019/02/21 12:00 UTC NOAA

TAF YPKG 211101Z 2112/2212 25008KT CAVOK
FM220400 32010KT CAVOK
FM220800 27008KT CAVOK


Example: see airport list